No particular awareness of the weather is required.    There are no Weather-warnings


Meteo18 Weather Cam more information Meteo18 Weather Cam


Thunder radar more information blitzortung!


Rain radar more information rain snow radar


Visit our other weather sites:

Template documentation
and downloads

And another site



Weather Underground History page Text

Daily Summary for June 15, 2017 Units:  English    Metric   Both
« Previous Day
Next Day »
Daily Weekly Monthly Yearly Custom
  High: Low: Average:
Temperature: 86.4 °F 60.4 °F 74.5 °F
Dew Point: 69.6 °F 52.7 °F 62.2 °F
Humidity: 96 % 33 % 69 %
Wind Speed: 19 mph 0 mph 3.5 mph
Wind Gust: 19 mph - -
Wind:- - West
Pressure: 30.2 in 30 in -
Precipitation: 0 in    
Historical Graphs
 
 
Tabular Data for June 15, 2017
Time Temperature Dew Point Pressure Wind Wind Speed Wind Gust Humidity Rainfall Rate (Hourly)
00:02 68.2 °F 64.8 °F 30 in Calm     89 % 0 in
00:12 67.6 °F 64 °F 30 in Calm     88 % 0 in
00:17 67.5 °F 64 °F 30 in Calm     89 % 0 in
00:22 67.5 °F 64.4 °F 30 in Calm     90 % 0 in
00:27 67.3 °F 64.2 °F 30 in Calm     90 % 0 in
00:32 66.9 °F 63.9 °F 30 in Calm     90 % 0 in
00:37 66.7 °F 63.7 °F 30 in Calm     90 % 0 in
00:42 66.6 °F 63.5 °F 30 in Calm     90 % 0 in
00:52 66.2 °F 63.5 °F 30 in Calm     91 % 0 in
00:57 66.2 °F 63.5 °F 30 in Calm     91 % 0 in
01:02 66 °F 63.3 °F 30 in Calm     91 % 0 in
01:07 65.8 °F 63.5 °F 30 in Calm     92 % 0 in
01:12 65.8 °F 63.5 °F 30 in Calm     92 % 0 in
01:17 65.8 °F 63.5 °F 30 in NNW 1 mph   92 % 0 in
01:22 66 °F 63.9 °F 30 in Calm   1 mph 93 % 0 in
01:32 65.8 °F 63.7 °F 30 in North 1 mph 1 mph 93 % 0 in
01:37 65.7 °F 63.3 °F 30 in Calm   1 mph 92 % 0 in
01:42 65.3 °F 63.1 °F 30 in Calm   1 mph 93 % 0 in
01:47 65.1 °F 63 °F 30 in Calm   1 mph 93 % 0 in
01:52 64.9 °F 62.8 °F 30 in Calm   1 mph 93 % 0 in
01:57 64.8 °F 62.6 °F 30 in Calm   1 mph 93 % 0 in
02:02 64.6 °F 62.4 °F 30 in Calm   1 mph 93 % 0 in
02:07 64.6 °F 62.8 °F 30 in Calm     94 % 0 in
02:12 64.6 °F 62.4 °F 30 in Calm     93 % 0 in
02:17 64.2 °F 62.2 °F 30 in Calm     93 % 0 in
02:22 64.2 °F 62.4 °F 30 in Calm     94 % 0 in
02:27 64.2 °F 62.4 °F 30 in Calm     94 % 0 in
02:32 64 °F 62.2 °F 30 in Calm     94 % 0 in
02:37 64 °F 62.2 °F 30 in Calm     94 % 0 in
02:42 64 °F 62.2 °F 30 in Calm     94 % 0 in
02:52 64 °F 62.2 °F 30 in Calm     94 % 0 in
02:57 63.9 °F 62.1 °F 30 in Calm     94 % 0 in
03:02 63.7 °F 61.9 °F 30 in Calm     94 % 0 in
03:07 63.3 °F 61.5 °F 30 in Calm     94 % 0 in
03:12 63.3 °F 61.9 °F 30 in Calm     95 % 0 in
03:17 63.5 °F 62.1 °F 30 in Calm     95 % 0 in
03:22 63.5 °F 62.1 °F 30 in Calm     95 % 0 in
03:32 62.8 °F 61 °F 30 in Calm     94 % 0 in
03:42 62.4 °F 61 °F 30 in Calm     95 % 0 in
03:52 62.6 °F 61.2 °F 30 in Calm     95 % 0 in
03:57 62.4 °F 61 °F 30 in Calm     95 % 0 in
04:02 62.2 °F 60.8 °F 30 in Calm     95 % 0 in
04:07 62.2 °F 60.8 °F 30 in Calm     95 % 0 in
04:12 62.4 °F 61.3 °F 30 in Calm     96 % 0 in
04:17 62.1 °F 60.6 °F 30 in Calm     95 % 0 in
04:27 61.5 °F 60.1 °F 30 in Calm     95 % 0 in
04:32 61.5 °F 60.4 °F 30 in Calm     96 % 0 in
04:37 61.7 °F 60.6 °F 30 in Calm     96 % 0 in
04:42 61.9 °F 60.8 °F 30 in Calm     96 % 0 in
04:47 62.1 °F 61 °F 30 in Calm     96 % 0 in
04:52 61.9 °F 60.8 °F 30 in Calm     96 % 0 in
04:57 62.1 °F 61 °F 30 in Calm     96 % 0 in
05:02 62.1 °F 61 °F 30 in Calm     96 % 0 in
05:12 61.5 °F 60.1 °F 30 in Calm     95 % 0 in
05:17 61.5 °F 60.4 °F 30 in Calm     96 % 0 in
05:22 61.5 °F 60.4 °F 30 in Calm     96 % 0 in
05:32 61.3 °F 60.3 °F 30 in Calm     96 % 0 in
05:37 61.5 °F 60.4 °F 30 in Calm     96 % 0 in
05:42 61.5 °F 60.4 °F 30 in Calm     96 % 0 in
05:47 61.3 °F 59.9 °F 30 in Calm     95 % 0 in
05:52 61.2 °F 60.1 °F 30 in Calm     96 % 0 in
05:57 61.2 °F 60.1 °F 30 in Calm     96 % 0 in
06:02 61.2 °F 60.1 °F 30 in Calm     96 % 0 in
06:12 60.6 °F 59.5 °F 30 in Calm     96 % 0 in
06:17 60.4 °F 59.4 °F 30 in Calm     96 % 0 in
06:22 60.4 °F 59.4 °F 30 in Calm     96 % 0 in
06:27 60.6 °F 59.5 °F 30 in Calm     96 % 0 in
06:32 60.8 °F 59.7 °F 30 in Calm     96 % 0 in
06:37 61.2 °F 60.1 °F 30 in Calm     96 % 0 in
06:42 61.7 °F 60.6 °F 30 in Calm     96 % 0 in
06:47 62.1 °F 61 °F 30 in Calm     96 % 0 in
06:52 62.2 °F 60.8 °F 30 in Calm     95 % 0 in
06:57 62.2 °F 60.8 °F 30 in Calm     95 % 0 in
07:02 62.4 °F 61 °F 30 in Calm     95 % 0 in
07:07 62.4 °F 61 °F 30 in Calm     95 % 0 in
07:12 63 °F 61.9 °F 30 in Calm     96 % 0 in
07:17 63.3 °F 62.2 °F 30 in Calm     96 % 0 in
07:22 63.7 °F 62.2 °F 30 in Calm     95 % 0 in
07:32 64.6 °F 63.1 °F 30 in Calm     95 % 0 in
07:37 65.3 °F 63.5 °F 30 in SW 1 mph   94 % 0 in
07:42 65.3 °F 63.1 °F 30 in SSW 1 mph   93 % 0 in
07:47 65.7 °F 63.5 °F 30 in SSW 3 mph 3 mph 93 % 0 in
07:52 65.7 °F 63.3 °F 30 in Calm   3 mph 92 % 0 in
07:57 65.8 °F 63.5 °F 30 in Calm   4 mph 92 % 0 in
08:02 66.4 °F 64 °F 30 in Calm   4 mph 92 % 0 in
08:12 67.1 °F 64.4 °F 30 in SW 1 mph 4 mph 91 % 0 in
08:17 67.6 °F 64.6 °F 30 in Calm   3 mph 90 % 0 in
08:22 68.5 °F 65.1 °F 30 in South 1 mph 2 mph 89 % 0 in
08:27 68.7 °F 64.8 °F 30 in Calm   2 mph 87 % 0 in
08:32 69.4 °F 65.1 °F 30 in Calm   2 mph 86 % 0 in
08:42 70.5 °F 65.5 °F 30 in Calm   2 mph 84 % 0 in
08:47 70.5 °F 65.5 °F 30 in SSW 1 mph 2 mph 84 % 0 in
08:52 70.5 °F 65.8 °F 30.1 in SW 3 mph 3 mph 85 % 0 in
08:57 70.7 °F 66 °F 30.1 in Calm   2 mph 85 % 0 in
09:02 71.4 °F 66.7 °F 30 in Calm   3 mph 85 % 0 in
09:12 72.3 °F 66.9 °F 30 in SSE 1 mph 3 mph 83 % 0 in
09:17 72.7 °F 67.3 °F 30.1 in SW 2 mph 3 mph 83 % 0 in
09:27 72.7 °F 67.3 °F 30.1 in SSW 3 mph 7 mph 83 % 0 in
09:32 73 °F 67.3 °F 30.1 in SW 4 mph 7 mph 82 % 0 in
09:37 73 °F 67.6 °F 30.1 in SSW 2 mph 7 mph 83 % 0 in
09:42 73.2 °F 67.8 °F 30.1 in SW 3 mph 7 mph 83 % 0 in
09:47 73.6 °F 67.8 °F 30.1 in SSW 3 mph 7 mph 82 % 0 in
09:52 73.8 °F 67.6 °F 30.1 in SSW 4 mph 7 mph 81 % 0 in
10:02 74.5 °F 68.2 °F 30.1 in SSW 3 mph 7 mph 81 % 0 in
10:12 75.4 °F 69.1 °F 30.1 in SW 3 mph 8 mph 81 % 0 in
10:17 75.7 °F 68.7 °F 30.1 in SW 3 mph 7 mph 79 % 0 in
10:22 76.3 °F 68.9 °F 30.1 in SSW 7 mph 7 mph 78 % 0 in
10:32 77 °F 69.6 °F 30.1 in SW 2 mph 7 mph 78 % 0 in
10:42 77.5 °F 68.9 °F 30.1 in SSW 5 mph 7 mph 75 % 0 in
10:47 78.1 °F 69.1 °F 30.1 in SW 5 mph 9 mph 74 % 0 in
10:52 78.6 °F 69.3 °F 30.1 in SW 3 mph 9 mph 73 % 0 in
10:57 79 °F 68.4 °F 30.1 in WSW 4 mph 9 mph 70 % 0 in
11:02 79.3 °F 68.7 °F 30.1 in WSW 4 mph 8 mph 70 % 0 in
11:07 79.9 °F 69.6 °F 30.1 in SSW 4 mph 8 mph 71 % 0 in
11:12 80.2 °F 69.6 °F 30.1 in SSW 5 mph 8 mph 70 % 0 in
11:17 80.8 °F 69.3 °F 30.1 in SSW 5 mph 10 mph 68 % 0 in
11:22 81 °F 68.9 °F 30.1 in SW 7 mph 10 mph 67 % 0 in
11:32 81 °F 69.4 °F 30.1 in WNW 6 mph 11 mph 68 % 0 in
11:37 81.3 °F 68.9 °F 30.1 in West 4 mph 11 mph 66 % 0 in
11:42 81.7 °F 68.7 °F 30.1 in WSW 8 mph 11 mph 65 % 0 in
11:52 81.9 °F 68.9 °F 30.1 in SSW 9 mph 10 mph 65 % 0 in
11:57 81.9 °F 68.9 °F 30.1 in SW 5 mph 10 mph 65 % 0 in
12:02 81.9 °F 68.5 °F 30.1 in West 7 mph 10 mph 64 % 0 in
12:12 82.6 °F 69.6 °F 30.1 in SW 7 mph 13 mph 65 % 0 in
12:17 82.6 °F 68.7 °F 30.1 in SW 8 mph 13 mph 63 % 0 in
12:22 82.9 °F 68.2 °F 30.1 in SSW 1 mph 11 mph 61 % 0 in
12:27 83.3 °F 68 °F 30.1 in West 7 mph 11 mph 60 % 0 in
12:32 82.9 °F 66.6 °F 30.1 in WNW 5 mph 11 mph 58 % 0 in
12:42 83.1 °F 66.7 °F 30.1 in SW 5 mph 11 mph 58 % 0 in
12:47 83.3 °F 66.9 °F 30.1 in WNW 7 mph 11 mph 58 % 0 in
12:52 83.7 °F 67.3 °F 30.1 in WSW 7 mph 11 mph 58 % 0 in
13:02 83.5 °F 66.6 °F 30.1 in WSW 8 mph 13 mph 57 % 0 in
13:07 84 °F 66.6 °F 30.1 in West 8 mph 13 mph 56 % 0 in
13:12 84.2 °F 66.2 °F 30.1 in West 9 mph 14 mph 55 % 0 in
13:17 84.2 °F 66.7 °F 30.1 in West 4 mph 14 mph 56 % 0 in
13:22 84.2 °F 66.2 °F 30.1 in SSW 9 mph 15 mph 55 % 0 in
13:27 84.2 °F 66.2 °F 30.1 in SSW 11 mph 15 mph 55 % 0 in
13:32 84 °F 66.6 °F 30.1 in SSW 3 mph 15 mph 56 % 0 in
13:37 84.6 °F 66 °F 30.1 in West 6 mph 15 mph 54 % 0 in
13:42 84.4 °F 65.3 °F 30.1 in WSW 9 mph 16 mph 53 % 0 in
13:47 84.7 °F 65.7 °F 30.1 in SSW 3 mph 16 mph 53 % 0 in
13:52 85.1 °F 66 °F 30.1 in West 4 mph 16 mph 53 % 0 in
13:57 85.8 °F 66.2 °F 30.1 in SW 8 mph 16 mph 52 % 0 in
14:02 84.9 °F 64.8 °F 30.1 in WSW 11 mph 16 mph 51 % 0 in
14:07 84.9 °F 64.8 °F 30.1 in West 7 mph 17 mph 51 % 0 in
14:12 85.3 °F 65.1 °F 30.1 in WSW 8 mph 17 mph 51 % 0 in
14:17 85.5 °F 64.8 °F 30.1 in West 10 mph 17 mph 50 % 0 in
14:22 85.3 °F 64 °F 30.1 in SW 10 mph 19 mph 49 % 0 in
14:32 85.1 °F 64.4 °F 30.1 in WNW 8 mph 19 mph 50 % 0 in
14:37 85.5 °F 64.8 °F 30.1 in SW 12 mph 18 mph 50 % 0 in
14:42 85.3 °F 64.6 °F 30.1 in WSW 10 mph 18 mph 50 % 0 in
14:47 85.3 °F 64.6 °F 30.1 in SW 6 mph 18 mph 50 % 0 in
14:52 85.3 °F 64 °F 30.1 in SW 9 mph 19 mph 49 % 0 in
14:57 85.1 °F 64.4 °F 30.1 in West 11 mph 19 mph 50 % 0 in
15:02 85.1 °F 64.4 °F 30.1 in West 7 mph 19 mph 50 % 0 in
15:12 85.3 °F 64 °F 30.1 in WNW 6 mph 15 mph 49 % 0 in
15:17 85.5 °F 63.5 °F 30.1 in WNW 15 mph 16 mph 48 % 0 in
15:22 85.3 °F 65.1 °F 30.1 in SSW 7 mph 16 mph 51 % 0 in
15:32 85.6 °F 63.7 °F 30.1 in West 19 mph 19 mph 48 % 0 in
15:37 85.1 °F 63.1 °F 30.1 in WSW 6 mph 19 mph 48 % 0 in
15:42 85.1 °F 62.6 °F 30.1 in WNW 10 mph 19 mph 47 % 0 in
15:52 85.5 °F 62.2 °F 30.1 in WNW 13 mph 18 mph 46 % 0 in
15:57 85.3 °F 62.2 °F 30.1 in West 10 mph 18 mph 46 % 0 in
16:02 85.5 °F 61 °F 30.1 in West 4 mph 17 mph 44 % 0 in
16:12 85.6 °F 57.9 °F 30.1 in West 9 mph 19 mph 39 % 0 in
16:17 86.2 °F 56.8 °F 30.1 in WSW 9 mph 18 mph 37 % 0 in
16:22 86.4 °F 57 °F 30.1 in West 11 mph 16 mph 37 % 0 in
16:32 86.4 °F 54.7 °F 30.1 in West 5 mph 17 mph 34 % 0 in
16:37 86.2 °F 53.8 °F 30.1 in West 8 mph 17 mph 33 % 0 in
16:42 86.4 °F 54.7 °F 30.1 in WNW 11 mph 17 mph 34 % 0 in
16:47 86.4 °F 54.7 °F 30.1 in West 8 mph 14 mph 34 % 0 in
16:52 86.2 °F 54.5 °F 30.1 in WSW 9 mph 16 mph 34 % 0 in
16:57 86 °F 53.6 °F 30.1 in West 9 mph 16 mph 33 % 0 in
17:02 85.6 °F 54.9 °F 30.1 in West 6 mph 14 mph 35 % 0 in
17:07 85.1 °F 54.3 °F 30.1 in WSW 9 mph 14 mph 35 % 0 in
17:12 84.6 °F 55.4 °F 30.1 in West 7 mph 16 mph 37 % 0 in
17:17 84.7 °F 56.3 °F 30.1 in West 7 mph 16 mph 38 % 0 in
17:22 84.7 °F 57 °F 30.1 in WNW 8 mph 15 mph 39 % 0 in
17:27 84.6 °F 56.8 °F 30.1 in West 13 mph 16 mph 39 % 0 in
17:32 84.9 °F 57.2 °F 30.1 in WNW 13 mph 16 mph 39 % 0 in
17:37 85.3 °F 57.6 °F 30.1 in West 8 mph 17 mph 39 % 0 in
17:42 85.5 °F 57 °F 30.1 in WNW 7 mph 17 mph 38 % 0 in
17:47 85.3 °F 57.6 °F 30.1 in West 6 mph 17 mph 39 % 0 in
17:52 85.3 °F 58.3 °F 30.1 in West 11 mph 16 mph 40 % 0 in
17:57 85.3 °F 59.5 °F 30.1 in WNW 9 mph 17 mph 42 % 0 in
18:02 85.3 °F 59 °F 30.1 in West 4 mph 17 mph 41 % 0 in
18:07 85.5 °F 59.7 °F 30.1 in WNW 5 mph 17 mph 42 % 0 in
18:12 85.5 °F 60.4 °F 30.1 in West 7 mph 16 mph 43 % 0 in
18:17 84.9 °F 60.6 °F 30.1 in WNW 12 mph 16 mph 44 % 0 in
18:22 84.9 °F 60.6 °F 30.1 in WNW 12 mph 16 mph 44 % 0 in
18:27 84.7 °F 61 °F 30.1 in NW 8 mph 13 mph 45 % 0 in
18:32 84.9 °F 61.2 °F 30.1 in WNW 6 mph 17 mph 45 % 0 in
18:37 84.4 °F 61.3 °F 30.1 in West 8 mph 17 mph 46 % 0 in
18:42 83.8 °F 60.8 °F 30.1 in NW 3 mph 17 mph 46 % 0 in
18:52 84.4 °F 60.1 °F 30.1 in West 4 mph 14 mph 44 % 0 in
19:02 84.6 °F 60.8 °F 30.1 in WNW 9 mph 16 mph 45 % 0 in
19:07 84.6 °F 60.8 °F 30.1 in NW 8 mph 16 mph 45 % 0 in
19:12 84 °F 59.7 °F 30.1 in West 11 mph 16 mph 44 % 0 in
19:17 83.8 °F 60.3 °F 30.1 in WNW 8 mph 14 mph 45 % 0 in
19:22 83.8 °F 60.8 °F 30.1 in NNW 2 mph 14 mph 46 % 0 in
19:27 84.2 °F 61.2 °F 30.1 in NW 5 mph 14 mph 46 % 0 in
19:32 84 °F 61 °F 30.1 in NW 2 mph 11 mph 46 % 0 in
19:37 83.7 °F 60.1 °F 30.1 in WNW 5 mph 10 mph 45 % 0 in
19:42 83.1 °F 60.8 °F 30.1 in WNW 3 mph 10 mph 47 % 0 in
19:47 82.8 °F 60.4 °F 30.1 in WNW 3 mph 11 mph 47 % 0 in
19:52 82.2 °F 59.9 °F 30.1 in WNW 7 mph 11 mph 47 % 0 in
19:57 81.9 °F 60.3 °F 30.1 in WNW 3 mph 11 mph 48 % 0 in
20:02 81.5 °F 59.9 °F 30.1 in NW 4 mph 10 mph 48 % 0 in
20:07 81.1 °F 59.5 °F 30.1 in West 6 mph 10 mph 48 % 0 in
20:12 80.8 °F 59.9 °F 30.1 in West 8 mph 11 mph 49 % 0 in
20:22 80.4 °F 60.1 °F 30.1 in NW 5 mph 11 mph 50 % 0 in
20:27 80.4 °F 60.1 °F 30.1 in WNW 5 mph 11 mph 50 % 0 in
20:32 80.4 °F 60.6 °F 30.1 in West 3 mph 8 mph 51 % 0 in
20:37 80.2 °F 60.4 °F 30.1 in WNW 1 mph 7 mph 51 % 0 in
20:42 79.9 °F 60.6 °F 30.1 in NW 1 mph 7 mph 52 % 0 in
20:47 79.3 °F 60.3 °F 30.1 in NW 1 mph 6 mph 52 % 0 in
20:52 79.2 °F 60.6 °F 30.1 in West 1 mph 6 mph 53 % 0 in
20:57 79 °F 61 °F 30.1 in WNW 1 mph 6 mph 54 % 0 in
21:02 78.4 °F 61 °F 30.1 in WNW 2 mph 6 mph 55 % 0 in
21:12 77.5 °F 60.6 °F 30.1 in WNW 1 mph 5 mph 56 % 0 in
21:17 77.2 °F 60.8 °F 30.1 in West 2 mph 5 mph 57 % 0 in
21:22 76.6 °F 60.3 °F 30.1 in West 2 mph 5 mph 57 % 0 in
21:32 75.9 °F 60.1 °F 30.1 in WNW 3 mph 5 mph 58 % 0 in
21:37 75.7 °F 59.9 °F 30.1 in WNW 2 mph 5 mph 58 % 0 in
21:42 75.6 °F 59.7 °F 30.1 in WNW 3 mph 4 mph 58 % 0 in
21:47 75.4 °F 60.1 °F 30.1 in WNW 3 mph 4 mph 59 % 0 in
21:52 75 °F 59.7 °F 30.1 in WNW 1 mph 4 mph 59 % 0 in
21:57 74.7 °F 59.9 °F 30.1 in WNW 3 mph 4 mph 60 % 0 in
22:02 74.5 °F 59.2 °F 30.1 in WNW 3 mph 4 mph 59 % 0 in
22:12 74.5 °F 59.2 °F 30.1 in West 2 mph 4 mph 59 % 0 in
22:22 74.1 °F 58.5 °F 30.1 in WNW 4 mph 6 mph 58 % 0 in
22:27 74.1 °F 58.8 °F 30.1 in NNW 2 mph 8 mph 59 % 0 in
22:32 73.6 °F 58.8 °F 30.1 in WNW 1 mph 8 mph 60 % 0 in
22:42 72.5 °F 58.8 °F 30.1 in North 4 mph 6 mph 62 % 0 in
22:47 72 °F 58.6 °F 30.1 in NNW 4 mph 5 mph 63 % 0 in
22:52 71.4 °F 58.1 °F 30.2 in NNW 3 mph 5 mph 63 % 0 in
22:57 71.1 °F 57.7 °F 30.2 in NNW 2 mph 7 mph 63 % 0 in
23:02 70.7 °F 57.6 °F 30.2 in North 1 mph 7 mph 63 % 0 in
23:07 70.5 °F 56.8 °F 30.2 in NW 1 mph 7 mph 62 % 0 in
23:12 70.3 °F 56.7 °F 30.2 in NW 4 mph 4 mph 62 % 0 in
23:17 70.3 °F 56.7 °F 30.2 in Calm   4 mph 62 % 0 in
23:22 70.2 °F 56.5 °F 30.2 in NW 1 mph 4 mph 62 % 0 in
23:32 70 °F 55.4 °F 30.2 in WNW 1 mph 4 mph 60 % 0 in
23:37 70 °F 55 °F 30.2 in NW 2 mph 4 mph 59 % 0 in
23:42 70 °F 54.5 °F 30.2 in NNW 1 mph 4 mph 58 % 0 in
23:47 70 °F 53.6 °F 30.2 in NW 3 mph 4 mph 56 % 0 in
23:52 69.6 °F 53.2 °F 30.2 in NNW 2 mph 4 mph 56 % 0 in
23:57 69.6 °F 52.7 °F 30.2 in NW 1 mph 6 mph 55 % 0 in
Meteo18
Compliments of Weather Underground - 4 mb

Script developed by  Jim McMurry - jmcmurry@mwt.net Adapted for the template by  Wim van der Kuil - Leuven-Template.eu

You find our weather info also at:

European Weather Network

Weather Underground

Equipment we use:

Weather-station
Davis Vue

Weather-program
Meteohub

Weather-server
Raspberry PI 2 B+

Provider
1 and 1

Davis Vue

Meteohub

Raspberry PI 2 B+

1 and 1